sensor_id;sensor_type;location;lat;lon;timestamp;temperature;humidity
9845;DHT22;4961;50.782;6.080;2022-10-31T00:01:20;16.80;99.90
9845;DHT22;4961;50.782;6.080;2022-10-31T00:03:48;16.80;99.90
9845;DHT22;4961;50.782;6.080;2022-10-31T00:06:17;16.80;99.90
9845;DHT22;4961;50.782;6.080;2022-10-31T00:08:47;16.80;99.90
9845;DHT22;4961;50.782;6.080;2022-10-31T00:11:19;16.80;99.90
9845;DHT22;4961;50.782;6.080;2022-10-31T00:13:47;16.80;99.90
9845;DHT22;4961;50.782;6.080;2022-10-31T00:16:17;16.80;99.90
9845;DHT22;4961;50.782;6.080;2022-10-31T00:18:48;16.80;99.90
9845;DHT22;4961;50.782;6.080;2022-10-31T00:21:17;16.80;99.90
9845;DHT22;4961;50.782;6.080;2022-10-31T00:23:47;16.80;99.90
9845;DHT22;4961;50.782;6.080;2022-10-31T00:26:18;16.80;99.90
9845;DHT22;4961;50.782;6.080;2022-10-31T00:28:47;16.80;99.90
9845;DHT22;4961;50.782;6.080;2022-10-31T00:31:15;16.80;99.90
9845;DHT22;4961;50.782;6.080;2022-10-31T00:33:44;16.80;99.90
9845;DHT22;4961;50.782;6.080;2022-10-31T00:36:13;16.80;99.90
9845;DHT22;4961;50.782;6.080;2022-10-31T00:38:43;16.80;99.90
9845;DHT22;4961;50.782;6.080;2022-10-31T00:41:14;16.80;99.90
9845;DHT22;4961;50.782;6.080;2022-10-31T00:43:43;16.80;99.90
9845;DHT22;4961;50.782;6.080;2022-10-31T00:46:12;16.80;99.90
9845;DHT22;4961;50.782;6.080;2022-10-31T00:48:40;16.80;99.90
9845;DHT22;4961;50.782;6.080;2022-10-31T00:51:09;16.80;99.90
9845;DHT22;4961;50.782;6.080;2022-10-31T00:53:38;16.80;99.90
9845;DHT22;4961;50.782;6.080;2022-10-31T00:56:06;16.80;99.90
9845;DHT22;4961;50.782;6.080;2022-10-31T00:58:36;16.70;99.90
9845;DHT22;4961;50.782;6.080;2022-10-31T01:01:04;16.70;99.90
9845;DHT22;4961;50.782;6.080;2022-10-31T01:03:33;16.60;99.90
9845;DHT22;4961;50.782;6.080;2022-10-31T01:06:04;16.60;99.90
9845;DHT22;4961;50.782;6.080;2022-10-31T01:08:33;16.60;99.90
9845;DHT22;4961;50.782;6.080;2022-10-31T01:11:04;16.50;99.90
9845;DHT22;4961;50.782;6.080;2022-10-31T01:13:33;16.50;99.90
9845;DHT22;4961;50.782;6.080;2022-10-31T01:16:05;16.50;99.90
9845;DHT22;4961;50.782;6.080;2022-10-31T01:18:34;16.40;99.90
9845;DHT22;4961;50.782;6.080;2022-10-31T01:21:05;16.40;99.90
9845;DHT22;4961;50.782;6.080;2022-10-31T01:23:34;16.30;99.90
9845;DHT22;4961;50.782;6.080;2022-10-31T01:26:05;16.30;99.90
9845;DHT22;4961;50.782;6.080;2022-10-31T01:28:35;16.20;99.90
9845;DHT22;4961;50.782;6.080;2022-10-31T01:31:07;16.20;99.90
9845;DHT22;4961;50.782;6.080;2022-10-31T01:33:37;16.10;99.90
9845;DHT22;4961;50.782;6.080;2022-10-31T01:36:14;16.10;99.90
9845;DHT22;4961;50.782;6.080;2022-10-31T01:38:45;16.00;99.90
9845;DHT22;4961;50.782;6.080;2022-10-31T01:41:15;16.00;99.90
9845;DHT22;4961;50.782;6.080;2022-10-31T01:43:47;16.00;99.90
9845;DHT22;4961;50.782;6.080;2022-10-31T01:46:21;15.90;99.90
9845;DHT22;4961;50.782;6.080;2022-10-31T01:48:51;15.90;99.90
9845;DHT22;4961;50.782;6.080;2022-10-31T01:51:25;15.90;99.90
9845;DHT22;4961;50.782;6.080;2022-10-31T01:53:56;15.90;99.90
9845;DHT22;4961;50.782;6.080;2022-10-31T01:56:26;15.90;99.90
9845;DHT22;4961;50.782;6.080;2022-10-31T01:58:55;15.90;99.90
9845;DHT22;4961;50.782;6.080;2022-10-31T02:01:26;15.90;99.90
9845;DHT22;4961;50.782;6.080;2022-10-31T02:03:56;15.90;99.90
9845;DHT22;4961;50.782;6.080;2022-10-31T02:06:33;15.90;99.90
9845;DHT22;4961;50.782;6.080;2022-10-31T02:09:04;15.90;99.90
9845;DHT22;4961;50.782;6.080;2022-10-31T02:11:34;15.90;99.90
9845;DHT22;4961;50.782;6.080;2022-10-31T02:14:04;15.90;99.90
9845;DHT22;4961;50.782;6.080;2022-10-31T02:16:33;15.90;99.90
9845;DHT22;4961;50.782;6.080;2022-10-31T02:19:02;15.90;99.90
9845;DHT22;4961;50.782;6.080;2022-10-31T02:21:39;16.00;99.90
9845;DHT22;4961;50.782;6.080;2022-10-31T02:24:40;16.00;99.90
9845;DHT22;4961;50.782;6.080;2022-10-31T02:27:21;16.00;99.90
9845;DHT22;4961;50.782;6.080;2022-10-31T02:30:09;16.10;99.90
9845;DHT22;4961;50.782;6.080;2022-10-31T02:32:48;16.10;99.90
9845;DHT22;4961;50.782;6.080;2022-10-31T02:35:29;16.10;99.90
9845;DHT22;4961;50.782;6.080;2022-10-31T02:38:04;16.10;99.90
9845;DHT22;4961;50.782;6.080;2022-10-31T02:40:37;16.10;99.90
9845;DHT22;4961;50.782;6.080;2022-10-31T02:43:12;16.10;99.90
9845;DHT22;4961;50.782;6.080;2022-10-31T02:45:49;16.10;99.90
9845;DHT22;4961;50.782;6.080;2022-10-31T02:48:23;16.10;99.90
9845;DHT22;4961;50.782;6.080;2022-10-31T02:50:55;16.00;99.90
9845;DHT22;4961;50.782;6.080;2022-10-31T02:53:25;16.00;99.90
9845;DHT22;4961;50.782;6.080;2022-10-31T02:56:02;16.00;99.90
9845;DHT22;4961;50.782;6.080;2022-10-31T02:58:34;16.00;99.90
9845;DHT22;4961;50.782;6.080;2022-10-31T03:01:39;16.10;99.90
9845;DHT22;4961;50.782;6.080;2022-10-31T03:04:31;16.10;99.90
9845;DHT22;4961;50.782;6.080;2022-10-31T03:07:06;16.10;99.90
9845;DHT22;4961;50.782;6.080;2022-10-31T03:09:43;16.10;99.90
9845;DHT22;4961;50.782;6.080;2022-10-31T03:12:16;16.10;99.90
9845;DHT22;4961;50.782;6.080;2022-10-31T03:14:53;16.10;99.90
9845;DHT22;4961;50.782;6.080;2022-10-31T03:17:31;16.00;99.90
9845;DHT22;4961;50.782;6.080;2022-10-31T03:20:04;15.90;99.90
9845;DHT22;4961;50.782;6.080;2022-10-31T03:22:34;15.90;99.90
9845;DHT22;4961;50.782;6.080;2022-10-31T03:25:05;16.00;99.90
9845;DHT22;4961;50.782;6.080;2022-10-31T03:27:35;16.00;99.90
9845;DHT22;4961;50.782;6.080;2022-10-31T03:30:07;16.00;99.90
9845;DHT22;4961;50.782;6.080;2022-10-31T03:32:39;15.90;99.90
9845;DHT22;4961;50.782;6.080;2022-10-31T03:35:13;15.90;99.90
9845;DHT22;4961;50.782;6.080;2022-10-31T03:37:43;15.90;99.90
9845;DHT22;4961;50.782;6.080;2022-10-31T03:40:14;15.90;99.90
9845;DHT22;4961;50.782;6.080;2022-10-31T03:42:48;15.80;99.90
9845;DHT22;4961;50.782;6.080;2022-10-31T03:45:22;15.80;99.90
9845;DHT22;4961;50.782;6.080;2022-10-31T03:47:51;15.80;99.90
9845;DHT22;4961;50.782;6.080;2022-10-31T03:50:26;15.80;99.90
9845;DHT22;4961;50.782;6.080;2022-10-31T03:52:58;15.70;99.90
9845;DHT22;4961;50.782;6.080;2022-10-31T03:55:30;15.70;99.90
9845;DHT22;4961;50.782;6.080;2022-10-31T03:58:02;15.60;99.90
9845;DHT22;4961;50.782;6.080;2022-10-31T04:00:32;15.60;99.90
9845;DHT22;4961;50.782;6.080;2022-10-31T04:03:05;15.50;99.90
9845;DHT22;4961;50.782;6.080;2022-10-31T04:05:37;15.50;99.90
9845;DHT22;4961;50.782;6.080;2022-10-31T04:08:09;15.50;99.90
9845;DHT22;4961;50.782;6.080;2022-10-31T04:10:38;15.40;99.90
9845;DHT22;4961;50.782;6.080;2022-10-31T04:13:11;15.40;99.90
9845;DHT22;4961;50.782;6.080;2022-10-31T04:15:42;15.40;99.90
9845;DHT22;4961;50.782;6.080;2022-10-31T04:18:11;15.30;99.90
9845;DHT22;4961;50.782;6.080;2022-10-31T04:20:41;15.30;99.90
9845;DHT22;4961;50.782;6.080;2022-10-31T04:23:16;15.30;99.90
9845;DHT22;4961;50.782;6.080;2022-10-31T04:25:46;15.20;99.90
9845;DHT22;4961;50.782;6.080;2022-10-31T04:28:14;15.20;99.90
9845;DHT22;4961;50.782;6.080;2022-10-31T04:30:42;15.20;99.90
9845;DHT22;4961;50.782;6.080;2022-10-31T04:33:10;15.20;99.90
9845;DHT22;4961;50.782;6.080;2022-10-31T04:35:40;15.20;99.90
9845;DHT22;4961;50.782;6.080;2022-10-31T04:38:08;15.20;99.90
9845;DHT22;4961;50.782;6.080;2022-10-31T04:40:36;15.20;99.90
9845;DHT22;4961;50.782;6.080;2022-10-31T04:43:05;15.20;99.90
9845;DHT22;4961;50.782;6.080;2022-10-31T04:45:33;15.30;99.90
9845;DHT22;4961;50.782;6.080;2022-10-31T04:48:01;15.20;99.90
9845;DHT22;4961;50.782;6.080;2022-10-31T04:50:29;15.20;99.90
9845;DHT22;4961;50.782;6.080;2022-10-31T04:52:59;15.20;99.90
9845;DHT22;4961;50.782;6.080;2022-10-31T04:55:27;15.20;99.90
9845;DHT22;4961;50.782;6.080;2022-10-31T04:57:55;15.20;99.90
9845;DHT22;4961;50.782;6.080;2022-10-31T05:00:24;15.20;99.90
9845;DHT22;4961;50.782;6.080;2022-10-31T05:02:54;15.20;99.90
9845;DHT22;4961;50.782;6.080;2022-10-31T05:05:27;15.10;99.90
9845;DHT22;4961;50.782;6.080;2022-10-31T05:07:55;15.10;99.90
9845;DHT22;4961;50.782;6.080;2022-10-31T05:10:27;15.10;99.90
9845;DHT22;4961;50.782;6.080;2022-10-31T05:12:57;15.10;99.90
9845;DHT22;4961;50.782;6.080;2022-10-31T05:15:26;15.10;99.90
9845;DHT22;4961;50.782;6.080;2022-10-31T05:17:55;15.10;99.90
9845;DHT22;4961;50.782;6.080;2022-10-31T05:20:27;15.10;99.90
9845;DHT22;4961;50.782;6.080;2022-10-31T05:22:58;15.00;99.90
9845;DHT22;4961;50.782;6.080;2022-10-31T05:25:29;15.00;99.90
9845;DHT22;4961;50.782;6.080;2022-10-31T05:27:57;15.00;99.90
9845;DHT22;4961;50.782;6.080;2022-10-31T05:30:28;15.10;99.90
9845;DHT22;4961;50.782;6.080;2022-10-31T05:32:57;15.10;99.90
9845;DHT22;4961;50.782;6.080;2022-10-31T05:35:28;15.10;99.90
9845;DHT22;4961;50.782;6.080;2022-10-31T05:37:57;15.10;99.90
9845;DHT22;4961;50.782;6.080;2022-10-31T05:40:27;15.00;99.90
9845;DHT22;4961;50.782;6.080;2022-10-31T05:42:56;15.00;99.90
9845;DHT22;4961;50.782;6.080;2022-10-31T05:45:26;15.00;99.90
9845;DHT22;4961;50.782;6.080;2022-10-31T05:47:55;15.00;99.90
9845;DHT22;4961;50.782;6.080;2022-10-31T05:50:25;15.00;99.90
9845;DHT22;4961;50.782;6.080;2022-10-31T05:52:55;14.90;99.90
9845;DHT22;4961;50.782;6.080;2022-10-31T05:55:23;14.90;99.90
9845;DHT22;4961;50.782;6.080;2022-10-31T05:57:55;15.00;99.90
9845;DHT22;4961;50.782;6.080;2022-10-31T06:00:25;14.90;99.90
9845;DHT22;4961;50.782;6.080;2022-10-31T06:02:58;14.90;99.90
9845;DHT22;4961;50.782;6.080;2022-10-31T06:05:26;14.90;99.90
9845;DHT22;4961;50.782;6.080;2022-10-31T06:07:55;14.90;99.90
9845;DHT22;4961;50.782;6.080;2022-10-31T06:10:24;14.90;99.90
9845;DHT22;4961;50.782;6.080;2022-10-31T06:12:56;14.90;99.90
9845;DHT22;4961;50.782;6.080;2022-10-31T06:15:24;14.90;99.90
9845;DHT22;4961;50.782;6.080;2022-10-31T06:18:03;14.90;99.90
9845;DHT22;4961;50.782;6.080;2022-10-31T06:20:33;14.80;99.90
9845;DHT22;4961;50.782;6.080;2022-10-31T06:23:03;14.80;99.90
9845;DHT22;4961;50.782;6.080;2022-10-31T06:25:32;14.80;99.90
9845;DHT22;4961;50.782;6.080;2022-10-31T06:28:02;14.80;99.90
9845;DHT22;4961;50.782;6.080;2022-10-31T06:30:30;14.70;99.90
9845;DHT22;4961;50.782;6.080;2022-10-31T06:33:04;14.70;99.90
9845;DHT22;4961;50.782;6.080;2022-10-31T06:35:32;14.70;99.90
9845;DHT22;4961;50.782;6.080;2022-10-31T06:38:00;14.70;99.90
9845;DHT22;4961;50.782;6.080;2022-10-31T06:40:37;14.70;99.90
9845;DHT22;4961;50.782;6.080;2022-10-31T06:43:12;14.70;99.90
9845;DHT22;4961;50.782;6.080;2022-10-31T06:45:44;14.80;99.90
9845;DHT22;4961;50.782;6.080;2022-10-31T06:48:12;14.80;99.90
9845;DHT22;4961;50.782;6.080;2022-10-31T06:50:44;14.80;99.90
9845;DHT22;4961;50.782;6.080;2022-10-31T06:53:13;14.90;99.90
9845;DHT22;4961;50.782;6.080;2022-10-31T06:55:42;14.90;99.90
9845;DHT22;4961;50.782;6.080;2022-10-31T06:58:12;14.90;99.90
9845;DHT22;4961;50.782;6.080;2022-10-31T07:00:41;14.90;99.90
9845;DHT22;4961;50.782;6.080;2022-10-31T07:03:11;14.90;99.90
9845;DHT22;4961;50.782;6.080;2022-10-31T07:05:40;14.90;99.90
9845;DHT22;4961;50.782;6.080;2022-10-31T07:08:10;14.90;99.90
9845;DHT22;4961;50.782;6.080;2022-10-31T07:10:41;15.00;99.90
9845;DHT22;4961;50.782;6.080;2022-10-31T07:13:13;15.00;99.90
9845;DHT22;4961;50.782;6.080;2022-10-31T07:15:42;14.90;99.90
9845;DHT22;4961;50.782;6.080;2022-10-31T07:18:11;15.00;99.90
9845;DHT22;4961;50.782;6.080;2022-10-31T07:20:40;15.00;99.90
9845;DHT22;4961;50.782;6.080;2022-10-31T07:23:09;15.00;99.90
9845;DHT22;4961;50.782;6.080;2022-10-31T07:25:38;15.10;99.90
9845;DHT22;4961;50.782;6.080;2022-10-31T07:28:07;15.00;99.90
9845;DHT22;4961;50.782;6.080;2022-10-31T07:30:37;15.00;99.90
9845;DHT22;4961;50.782;6.080;2022-10-31T07:33:05;15.10;99.90
9845;DHT22;4961;50.782;6.080;2022-10-31T07:35:34;15.20;99.90
9845;DHT22;4961;50.782;6.080;2022-10-31T07:38:09;15.20;99.90
9845;DHT22;4961;50.782;6.080;2022-10-31T07:40:38;15.20;99.90
9845;DHT22;4961;50.782;6.080;2022-10-31T07:43:07;15.30;99.90
9845;DHT22;4961;50.782;6.080;2022-10-31T07:45:41;15.30;99.90
9845;DHT22;4961;50.782;6.080;2022-10-31T07:48:10;15.30;99.90
9845;DHT22;4961;50.782;6.080;2022-10-31T07:50:38;15.30;99.90
9845;DHT22;4961;50.782;6.080;2022-10-31T07:53:08;15.30;99.90
9845;DHT22;4961;50.782;6.080;2022-10-31T07:55:37;15.40;99.90
9845;DHT22;4961;50.782;6.080;2022-10-31T07:58:07;15.40;99.90
9845;DHT22;4961;50.782;6.080;2022-10-31T08:00:37;15.40;99.90
9845;DHT22;4961;50.782;6.080;2022-10-31T08:03:08;15.50;99.90
9845;DHT22;4961;50.782;6.080;2022-10-31T08:05:37;15.50;99.90
9845;DHT22;4961;50.782;6.080;2022-10-31T08:08:08;15.60;99.90
9845;DHT22;4961;50.782;6.080;2022-10-31T08:10:37;15.60;99.90
9845;DHT22;4961;50.782;6.080;2022-10-31T08:13:07;15.60;99.90
9845;DHT22;4961;50.782;6.080;2022-10-31T08:15:37;15.70;99.90
9845;DHT22;4961;50.782;6.080;2022-10-31T08:18:13;15.70;99.90
9845;DHT22;4961;50.782;6.080;2022-10-31T08:20:43;15.70;99.90
9845;DHT22;4961;50.782;6.080;2022-10-31T08:23:12;15.70;99.90
9845;DHT22;4961;50.782;6.080;2022-10-31T08:25:41;15.80;99.90
9845;DHT22;4961;50.782;6.080;2022-10-31T08:28:11;15.90;99.90
9845;DHT22;4961;50.782;6.080;2022-10-31T08:30:40;16.00;99.90
9845;DHT22;4961;50.782;6.080;2022-10-31T08:33:12;16.00;99.90
9845;DHT22;4961;50.782;6.080;2022-10-31T08:35:41;16.10;99.90
9845;DHT22;4961;50.782;6.080;2022-10-31T08:38:11;16.10;99.90
9845;DHT22;4961;50.782;6.080;2022-10-31T08:40:40;16.10;99.90
9845;DHT22;4961;50.782;6.080;2022-10-31T08:43:11;16.30;99.90
9845;DHT22;4961;50.782;6.080;2022-10-31T08:45:41;16.30;99.90
9845;DHT22;4961;50.782;6.080;2022-10-31T08:48:13;16.40;99.90
9845;DHT22;4961;50.782;6.080;2022-10-31T08:50:43;16.60;99.90
9845;DHT22;4961;50.782;6.080;2022-10-31T08:53:13;16.70;99.90
9845;DHT22;4961;50.782;6.080;2022-10-31T08:55:43;16.80;99.90
9845;DHT22;4961;50.782;6.080;2022-10-31T08:58:13;16.90;99.90
9845;DHT22;4961;50.782;6.080;2022-10-31T09:00:43;17.00;99.90
9845;DHT22;4961;50.782;6.080;2022-10-31T09:03:14;17.20;99.90
9845;DHT22;4961;50.782;6.080;2022-10-31T09:05:43;17.40;99.90
9845;DHT22;4961;50.782;6.080;2022-10-31T09:08:13;17.60;99.90
9845;DHT22;4961;50.782;6.080;2022-10-31T09:10:44;17.70;99.90
9845;DHT22;4961;50.782;6.080;2022-10-31T09:13:16;17.80;99.90
9845;DHT22;4961;50.782;6.080;2022-10-31T09:15:46;17.80;99.90
9845;DHT22;4961;50.782;6.080;2022-10-31T09:18:17;17.80;99.90
9845;DHT22;4961;50.782;6.080;2022-10-31T09:20:47;17.90;99.90
9845;DHT22;4961;50.782;6.080;2022-10-31T09:23:17;17.80;99.90
9845;DHT22;4961;50.782;6.080;2022-10-31T09:25:50;17.80;99.90
9845;DHT22;4961;50.782;6.080;2022-10-31T09:28:21;17.80;99.90
9845;DHT22;4961;50.782;6.080;2022-10-31T09:30:51;17.80;99.90
9845;DHT22;4961;50.782;6.080;2022-10-31T09:33:21;17.90;99.90
9845;DHT22;4961;50.782;6.080;2022-10-31T09:35:49;18.00;99.90
9845;DHT22;4961;50.782;6.080;2022-10-31T09:38:19;18.10;99.90
9845;DHT22;4961;50.782;6.080;2022-10-31T09:40:54;18.10;99.90
9845;DHT22;4961;50.782;6.080;2022-10-31T09:43:29;18.20;99.90
9845;DHT22;4961;50.782;6.080;2022-10-31T09:46:04;18.30;99.90
9845;DHT22;4961;50.782;6.080;2022-10-31T09:48:50;18.40;99.90
9845;DHT22;4961;50.782;6.080;2022-10-31T09:51:28;18.40;99.90
9845;DHT22;4961;50.782;6.080;2022-10-31T09:54:01;18.40;99.90
9845;DHT22;4961;50.782;6.080;2022-10-31T09:56:32;18.40;99.90
9845;DHT22;4961;50.782;6.080;2022-10-31T09:59:03;18.40;99.90
9845;DHT22;4961;50.782;6.080;2022-10-31T10:01:42;18.40;99.90
9845;DHT22;4961;50.782;6.080;2022-10-31T10:07:16;18.60;99.90
9845;DHT22;4961;50.782;6.080;2022-10-31T10:09:49;18.70;99.90
9845;DHT22;4961;50.782;6.080;2022-10-31T10:12:26;18.80;99.90
9845;DHT22;4961;50.782;6.080;2022-10-31T10:15:24;18.90;99.90
9845;DHT22;4961;50.782;6.080;2022-10-31T10:18:03;19.10;99.90
9845;DHT22;4961;50.782;6.080;2022-10-31T10:20:41;19.10;99.90
9845;DHT22;4961;50.782;6.080;2022-10-31T10:23:23;19.20;99.90
9845;DHT22;4961;50.782;6.080;2022-10-31T10:26:02;19.20;99.90
9845;DHT22;4961;50.782;6.080;2022-10-31T10:28:40;19.20;99.90
9845;DHT22;4961;50.782;6.080;2022-10-31T10:31:13;19.20;99.90
9845;DHT22;4961;50.782;6.080;2022-10-31T10:33:52;19.20;99.90
9845;DHT22;4961;50.782;6.080;2022-10-31T10:36:30;19.20;99.90
9845;DHT22;4961;50.782;6.080;2022-10-31T10:39:04;19.20;99.90
9845;DHT22;4961;50.782;6.080;2022-10-31T10:41:36;19.30;99.90
9845;DHT22;4961;50.782;6.080;2022-10-31T10:44:09;19.30;99.90
9845;DHT22;4961;50.782;6.080;2022-10-31T10:46:41;19.30;99.90
9845;DHT22;4961;50.782;6.080;2022-10-31T10:49:34;19.30;99.90
9845;DHT22;4961;50.782;6.080;2022-10-31T10:52:13;19.30;99.90
9845;DHT22;4961;50.782;6.080;2022-10-31T10:55:09;19.30;99.90
9845;DHT22;4961;50.782;6.080;2022-10-31T10:57:50;19.40;99.90
9845;DHT22;4961;50.782;6.080;2022-10-31T11:00:25;19.40;99.90
9845;DHT22;4961;50.782;6.080;2022-10-31T11:02:55;19.50;99.90
9845;DHT22;4961;50.782;6.080;2022-10-31T11:05:28;19.60;99.90
9845;DHT22;4961;50.782;6.080;2022-10-31T11:07:59;19.60;99.90
9845;DHT22;4961;50.782;6.080;2022-10-31T11:10:27;19.70;99.90
9845;DHT22;4961;50.782;6.080;2022-10-31T11:13:03;19.80;99.90
9845;DHT22;4961;50.782;6.080;2022-10-31T11:15:36;19.90;99.90
9845;DHT22;4961;50.782;6.080;2022-10-31T11:18:05;20.00;99.90
9845;DHT22;4961;50.782;6.080;2022-10-31T11:20:35;20.10;99.90
9845;DHT22;4961;50.782;6.080;2022-10-31T11:23:16;20.20;99.90
9845;DHT22;4961;50.782;6.080;2022-10-31T11:25:53;20.30;99.90
9845;DHT22;4961;50.782;6.080;2022-10-31T11:28:22;20.30;99.90
9845;DHT22;4961;50.782;6.080;2022-10-31T11:30:54;20.40;99.90
9845;DHT22;4961;50.782;6.080;2022-10-31T11:33:27;20.40;99.90
9845;DHT22;4961;50.782;6.080;2022-10-31T11:35:57;20.40;99.90
9845;DHT22;4961;50.782;6.080;2022-10-31T11:38:32;20.50;99.90
9845;DHT22;4961;50.782;6.080;2022-10-31T11:41:10;20.50;99.90
9845;DHT22;4961;50.782;6.080;2022-10-31T11:43:45;20.60;99.90
9845;DHT22;4961;50.782;6.080;2022-10-31T11:46:19;20.60;99.90
9845;DHT22;4961;50.782;6.080;2022-10-31T11:48:52;20.70;99.90
9845;DHT22;4961;50.782;6.080;2022-10-31T11:51:22;20.80;99.90
9845;DHT22;4961;50.782;6.080;2022-10-31T11:53:57;20.80;99.90
9845;DHT22;4961;50.782;6.080;2022-10-31T11:56:38;20.90;99.90
9845;DHT22;4961;50.782;6.080;2022-10-31T11:59:22;21.00;99.90
9845;DHT22;4961;50.782;6.080;2022-10-31T12:01:52;21.00;99.90
9845;DHT22;4961;50.782;6.080;2022-10-31T12:04:37;21.00;99.90
9845;DHT22;4961;50.782;6.080;2022-10-31T12:07:07;21.10;99.90
9845;DHT22;4961;50.782;6.080;2022-10-31T12:09:38;21.10;99.90
9845;DHT22;4961;50.782;6.080;2022-10-31T12:12:28;21.00;99.90
9845;DHT22;4961;50.782;6.080;2022-10-31T12:15:14;21.00;99.90
9845;DHT22;4961;50.782;6.080;2022-10-31T12:17:52;21.00;99.90
9845;DHT22;4961;50.782;6.080;2022-10-31T12:20:32;21.00;99.90
9845;DHT22;4961;50.782;6.080;2022-10-31T12:23:06;21.00;99.90
9845;DHT22;4961;50.782;6.080;2022-10-31T12:25:44;20.90;99.90
9845;DHT22;4961;50.782;6.080;2022-10-31T12:28:36;20.90;99.90
9845;DHT22;4961;50.782;6.080;2022-10-31T12:31:28;20.90;99.90
9845;DHT22;4961;50.782;6.080;2022-10-31T12:37:23;20.90;99.90
9845;DHT22;4961;50.782;6.080;2022-10-31T12:40:04;20.90;99.90
9845;DHT22;4961;50.782;6.080;2022-10-31T12:42:47;20.80;99.90
9845;DHT22;4961;50.782;6.080;2022-10-31T12:45:36;20.80;99.90
9845;DHT22;4961;50.782;6.080;2022-10-31T12:48:20;20.80;99.90
9845;DHT22;4961;50.782;6.080;2022-10-31T12:50:55;20.90;99.90
9845;DHT22;4961;50.782;6.080;2022-10-31T12:53:41;21.00;99.90
9845;DHT22;4961;50.782;6.080;2022-10-31T12:56:29;21.10;99.90
9845;DHT22;4961;50.782;6.080;2022-10-31T12:59:09;21.20;99.90
9845;DHT22;4961;50.782;6.080;2022-10-31T13:01:44;21.20;99.90
9845;DHT22;4961;50.782;6.080;2022-10-31T13:04:29;21.30;99.90
9845;DHT22;4961;50.782;6.080;2022-10-31T13:07:05;21.40;99.90
9845;DHT22;4961;50.782;6.080;2022-10-31T13:09:38;21.40;99.90
9845;DHT22;4961;50.782;6.080;2022-10-31T13:12:10;21.50;99.90
9845;DHT22;4961;50.782;6.080;2022-10-31T13:14:43;21.60;99.90
9845;DHT22;4961;50.782;6.080;2022-10-31T13:17:20;21.60;99.90
9845;DHT22;4961;50.782;6.080;2022-10-31T13:19:50;21.70;99.90
9845;DHT22;4961;50.782;6.080;2022-10-31T13:22:22;21.70;99.90
9845;DHT22;4961;50.782;6.080;2022-10-31T13:24:56;21.70;99.90
9845;DHT22;4961;50.782;6.080;2022-10-31T13:27:30;21.60;99.90
9845;DHT22;4961;50.782;6.080;2022-10-31T13:30:03;21.60;99.90
9845;DHT22;4961;50.782;6.080;2022-10-31T13:32:38;21.60;99.90
9845;DHT22;4961;50.782;6.080;2022-10-31T13:35:14;21.50;99.90
9845;DHT22;4961;50.782;6.080;2022-10-31T13:37:48;21.50;99.90
9845;DHT22;4961;50.782;6.080;2022-10-31T13:40:32;21.50;99.90
9845;DHT22;4961;50.782;6.080;2022-10-31T13:43:09;21.40;99.90
9845;DHT22;4961;50.782;6.080;2022-10-31T13:45:49;21.40;99.90
9845;DHT22;4961;50.782;6.080;2022-10-31T13:48:34;21.40;99.90
9845;DHT22;4961;50.782;6.080;2022-10-31T13:51:05;21.20;99.90
9845;DHT22;4961;50.782;6.080;2022-10-31T13:53:44;21.20;99.90
9845;DHT22;4961;50.782;6.080;2022-10-31T13:56:18;21.10;99.90
9845;DHT22;4961;50.782;6.080;2022-10-31T13:59:14;21.10;99.90
9845;DHT22;4961;50.782;6.080;2022-10-31T14:01:56;21.10;99.90
9845;DHT22;4961;50.782;6.080;2022-10-31T14:04:35;21.00;99.90
9845;DHT22;4961;50.782;6.080;2022-10-31T14:07:07;20.90;99.90
9845;DHT22;4961;50.782;6.080;2022-10-31T14:09:39;20.90;99.90
9845;DHT22;4961;50.782;6.080;2022-10-31T14:12:11;20.80;99.90
9845;DHT22;4961;50.782;6.080;2022-10-31T14:14:46;20.70;99.90
9845;DHT22;4961;50.782;6.080;2022-10-31T14:17:23;20.60;99.90
9845;DHT22;4961;50.782;6.080;2022-10-31T14:23:36;20.50;99.90
9845;DHT22;4961;50.782;6.080;2022-10-31T14:26:18;20.50;99.90
9845;DHT22;4961;50.782;6.080;2022-10-31T14:28:48;20.40;99.90
9845;DHT22;4961;50.782;6.080;2022-10-31T14:31:34;20.40;99.90
9845;DHT22;4961;50.782;6.080;2022-10-31T14:34:22;20.40;99.90
9845;DHT22;4961;50.782;6.080;2022-10-31T14:37:02;20.40;99.90
9845;DHT22;4961;50.782;6.080;2022-10-31T14:39:39;20.40;99.90
9845;DHT22;4961;50.782;6.080;2022-10-31T14:42:24;20.40;99.90
9845;DHT22;4961;50.782;6.080;2022-10-31T14:45:05;20.50;99.90
9845;DHT22;4961;50.782;6.080;2022-10-31T14:47:45;20.50;99.90
9845;DHT22;4961;50.782;6.080;2022-10-31T14:50:34;20.50;99.90
9845;DHT22;4961;50.782;6.080;2022-10-31T14:53:15;20.50;99.90
9845;DHT22;4961;50.782;6.080;2022-10-31T14:55:54;20.50;99.90
9845;DHT22;4961;50.782;6.080;2022-10-31T14:58:38;20.50;99.90
9845;DHT22;4961;50.782;6.080;2022-10-31T15:01:15;20.40;99.90
9845;DHT22;4961;50.782;6.080;2022-10-31T15:03:46;20.40;99.90
9845;DHT22;4961;50.782;6.080;2022-10-31T15:06:40;20.40;99.90
9845;DHT22;4961;50.782;6.080;2022-10-31T15:09:25;20.40;99.90
9845;DHT22;4961;50.782;6.080;2022-10-31T15:11:53;20.30;99.90
9845;DHT22;4961;50.782;6.080;2022-10-31T15:14:24;20.30;99.90
9845;DHT22;4961;50.782;6.080;2022-10-31T15:16:53;20.30;99.90
9845;DHT22;4961;50.782;6.080;2022-10-31T15:19:23;20.20;99.90
9845;DHT22;4961;50.782;6.080;2022-10-31T15:21:55;20.20;99.90
9845;DHT22;4961;50.782;6.080;2022-10-31T15:24:30;20.10;99.90
9845;DHT22;4961;50.782;6.080;2022-10-31T15:26:59;20.00;99.90
9845;DHT22;4961;50.782;6.080;2022-10-31T15:29:31;19.90;99.90
9845;DHT22;4961;50.782;6.080;2022-10-31T15:32:09;19.90;99.90
9845;DHT22;4961;50.782;6.080;2022-10-31T15:34:44;19.80;99.90
9845;DHT22;4961;50.782;6.080;2022-10-31T15:37:15;19.70;99.90
9845;DHT22;4961;50.782;6.080;2022-10-31T15:39:44;19.60;99.90
9845;DHT22;4961;50.782;6.080;2022-10-31T15:42:20;19.60;99.90
9845;DHT22;4961;50.782;6.080;2022-10-31T15:44:54;19.50;99.90
9845;DHT22;4961;50.782;6.080;2022-10-31T15:47:27;19.40;99.90
9845;DHT22;4961;50.782;6.080;2022-10-31T15:49:57;19.30;99.90
9845;DHT22;4961;50.782;6.080;2022-10-31T15:52:31;19.20;99.90
9845;DHT22;4961;50.782;6.080;2022-10-31T15:55:03;19.10;99.90
9845;DHT22;4961;50.782;6.080;2022-10-31T15:57:32;19.00;99.90
9845;DHT22;4961;50.782;6.080;2022-10-31T16:00:01;18.90;99.90
9845;DHT22;4961;50.782;6.080;2022-10-31T16:02:30;18.80;99.90
9845;DHT22;4961;50.782;6.080;2022-10-31T16:05:00;18.80;99.90
9845;DHT22;4961;50.782;6.080;2022-10-31T16:07:31;18.60;99.90
9845;DHT22;4961;50.782;6.080;2022-10-31T16:10:01;18.60;99.90
9845;DHT22;4961;50.782;6.080;2022-10-31T16:12:34;18.40;99.90
9845;DHT22;4961;50.782;6.080;2022-10-31T16:15:04;18.40;99.90
9845;DHT22;4961;50.782;6.080;2022-10-31T16:17:35;18.20;99.90
9845;DHT22;4961;50.782;6.080;2022-10-31T16:20:19;18.20;99.90
9845;DHT22;4961;50.782;6.080;2022-10-31T16:22:51;18.10;99.90
9845;DHT22;4961;50.782;6.080;2022-10-31T16:25:25;18.10;99.90
9845;DHT22;4961;50.782;6.080;2022-10-31T16:27:56;18.00;99.90
9845;DHT22;4961;50.782;6.080;2022-10-31T16:30:32;17.90;99.90
9845;DHT22;4961;50.782;6.080;2022-10-31T16:33:04;17.90;99.90
9845;DHT22;4961;50.782;6.080;2022-10-31T16:35:34;17.90;99.90
9845;DHT22;4961;50.782;6.080;2022-10-31T16:38:05;18.00;99.90
9845;DHT22;4961;50.782;6.080;2022-10-31T16:40:35;18.20;99.90
9845;DHT22;4961;50.782;6.080;2022-10-31T16:43:10;18.30;99.90
9845;DHT22;4961;50.782;6.080;2022-10-31T16:45:43;18.40;99.90
9845;DHT22;4961;50.782;6.080;2022-10-31T16:48:13;18.50;99.90
9845;DHT22;4961;50.782;6.080;2022-10-31T16:50:42;18.40;99.90